createdAt,value
2019-05-28T00:01:18.347Z,15.65
2019-05-28T00:04:19.874Z,15.55
2019-05-28T00:07:21.112Z,16.45
2019-05-28T00:10:22.726Z,16.12
2019-05-28T00:13:24.126Z,16.87
2019-05-28T00:16:25.349Z,17.32
2019-05-28T00:19:26.730Z,17.55
2019-05-28T00:22:28.316Z,17.15
2019-05-28T00:25:29.561Z,18.57
2019-05-28T00:28:30.794Z,17.65
2019-05-28T00:31:32.237Z,18.70
2019-05-28T00:34:33.458Z,18.42
2019-05-28T00:37:34.906Z,19.60
2019-05-28T00:40:36.144Z,19.48
2019-05-28T00:43:37.572Z,20.25
2019-05-28T00:46:38.824Z,19.40
2019-05-28T00:49:40.259Z,19.32
2019-05-28T00:52:41.589Z,20.08
2019-05-28T00:55:43.028Z,20.65
2019-05-28T00:58:44.499Z,20.65
2019-05-28T01:01:46.002Z,19.12
2019-05-28T01:04:47.328Z,21.02
2019-05-28T01:07:48.789Z,20.43
2019-05-28T01:10:51.073Z,19.70
2019-05-28T01:13:52.929Z,21.17
2019-05-28T01:16:54.193Z,20.90
2019-05-28T01:19:55.750Z,20.15
2019-05-28T01:22:56.989Z,21.10
2019-05-28T01:25:58.611Z,20.50
2019-05-28T01:28:59.856Z,21.87
2019-05-28T01:32:01.278Z,21.93
2019-05-28T01:35:04.425Z,21.35
2019-05-28T01:38:08.351Z,21.35
2019-05-28T01:41:09.198Z,22.00
2019-05-28T01:44:10.445Z,21.57
2019-05-28T01:47:11.906Z,22.10
2019-05-28T01:50:13.540Z,21.85
2019-05-28T01:53:14.956Z,22.85
2019-05-28T01:56:16.194Z,22.00
2019-05-28T01:59:17.453Z,23.67
2019-05-28T02:02:18.703Z,25.60
2019-05-28T02:05:19.929Z,25.12
2019-05-28T02:08:21.179Z,24.65
2019-05-28T02:11:22.438Z,24.72
2019-05-28T02:14:24.114Z,25.80
2019-05-28T02:17:25.365Z,27.48
2019-05-28T02:20:26.618Z,26.82
2019-05-28T02:23:27.853Z,26.52
2019-05-28T02:26:29.363Z,27.48
2019-05-28T02:29:30.906Z,27.35
2019-05-28T02:32:32.149Z,27.67
2019-05-28T02:35:33.399Z,29.35
2019-05-28T02:38:34.663Z,28.32
2019-05-28T02:41:36.036Z,30.48
2019-05-28T02:44:37.274Z,28.62
2019-05-28T02:47:38.528Z,28.77
2019-05-28T02:50:55.490Z,29.65
2019-05-28T02:53:56.776Z,28.62
2019-05-28T02:56:59.466Z,29.52
2019-05-28T03:00:00.690Z,28.73
2019-05-28T03:03:02.054Z,28.80
2019-05-28T03:06:04.381Z,27.60
2019-05-28T03:09:05.925Z,26.93
2019-05-28T03:12:09.321Z,26.48
2019-05-28T03:15:10.750Z,24.00
2019-05-28T03:18:11.985Z,24.60
2019-05-28T03:21:13.579Z,24.12
2019-05-28T03:24:14.774Z,26.23
2019-05-28T03:27:16.029Z,24.07
2019-05-28T03:30:17.274Z,24.92
2019-05-28T03:33:18.539Z,24.50
2019-05-28T03:36:19.805Z,23.60
2019-05-28T03:39:21.137Z,23.57
2019-05-28T03:42:22.575Z,25.32
2019-05-28T03:45:23.844Z,26.10
2019-05-28T03:48:25.438Z,25.88
2019-05-28T03:51:26.664Z,25.97
2019-05-28T03:54:27.934Z,25.30
2019-05-28T03:57:29.173Z,27.07
2019-05-28T04:00:31.173Z,24.77
2019-05-28T04:03:32.467Z,25.50
2019-05-28T04:06:33.893Z,23.65
2019-05-28T04:09:35.514Z,23.80
2019-05-28T04:12:37.998Z,24.07
2019-05-28T04:15:39.366Z,25.23
2019-05-28T04:18:40.799Z,25.27
2019-05-28T04:21:42.047Z,25.92
2019-05-28T04:24:43.533Z,25.37
2019-05-28T04:27:44.770Z,23.87
2019-05-28T04:34:07.007Z,21.15
2019-05-28T04:37:08.487Z,21.40
2019-05-28T04:40:09.723Z,21.05
2019-05-28T04:43:10.990Z,19.52
2019-05-28T04:46:12.531Z,18.75
2019-05-28T04:49:14.073Z,18.17
2019-05-28T04:52:15.329Z,17.52
2019-05-28T04:55:16.918Z,16.32
2019-05-28T04:58:18.434Z,16.57
2019-05-28T05:01:19.891Z,15.85
2019-05-28T05:04:21.187Z,15.75
2019-05-28T05:07:22.634Z,16.20
2019-05-28T05:10:23.870Z,14.68
2019-05-28T05:13:25.646Z,15.45
2019-05-28T05:16:27.952Z,13.38
2019-05-28T05:19:29.197Z,13.88
2019-05-28T05:22:30.454Z,12.13
2019-05-28T05:25:31.797Z,11.85
2019-05-28T05:28:33.025Z,11.20
2019-05-28T05:31:35.045Z,11.85
2019-05-28T05:34:36.670Z,11.90
2019-05-28T05:37:38.034Z,11.55
2019-05-28T05:40:39.370Z,10.45
2019-05-28T05:43:40.677Z,11.40
2019-05-28T05:46:42.209Z,11.30
2019-05-28T05:49:43.906Z,11.78
2019-05-28T05:52:45.189Z,11.40
2019-05-28T05:55:46.649Z,10.88
2019-05-28T05:58:48.275Z,10.80
2019-05-28T06:01:49.667Z,10.72
2019-05-28T06:04:50.937Z,11.78
2019-05-28T06:07:52.431Z,11.53
2019-05-28T06:10:53.622Z,11.25
2019-05-28T06:13:55.315Z,11.68
2019-05-28T06:16:56.601Z,11.55
2019-05-28T06:19:57.849Z,12.00
2019-05-28T06:22:59.269Z,11.05
2019-05-28T06:26:00.508Z,11.22
2019-05-28T06:29:01.769Z,11.48
2019-05-28T06:32:03.130Z,11.03
2019-05-28T06:35:04.979Z,10.53
2019-05-28T06:38:06.490Z,10.50
2019-05-28T06:41:07.741Z,11.10
2019-05-28T06:44:09.217Z,10.43
2019-05-28T06:47:10.441Z,10.78
2019-05-28T06:50:12.736Z,10.68
2019-05-28T06:53:15.246Z,10.25
2019-05-28T06:56:16.893Z,10.93
2019-05-28T06:59:18.142Z,11.05
2019-05-28T07:02:19.644Z,10.45
2019-05-28T07:05:20.909Z,10.72
2019-05-28T07:08:22.819Z,11.60
2019-05-28T07:11:24.167Z,10.50
2019-05-28T07:14:25.623Z,10.03
2019-05-28T07:17:26.882Z,10.70
2019-05-28T07:20:28.235Z,10.50
2019-05-28T07:23:29.472Z,10.25
2019-05-28T07:26:30.844Z,10.63
2019-05-28T07:29:32.074Z,10.75
2019-05-28T07:32:33.513Z,11.63
2019-05-28T07:35:45.253Z,11.88
2019-05-28T07:38:38.222Z,12.07
2019-05-28T07:41:39.732Z,12.25
2019-05-28T07:44:41.492Z,11.65
2019-05-28T07:47:42.881Z,11.50
2019-05-28T07:50:44.122Z,11.83
2019-05-28T07:53:45.703Z,12.23
2019-05-28T07:56:46.962Z,11.40
2019-05-28T07:59:48.402Z,11.85
2019-05-28T08:02:49.705Z,11.68
2019-05-28T08:05:51.182Z,11.85
2019-05-28T08:08:52.457Z,11.95
2019-05-28T08:11:56.757Z,12.43
2019-05-28T08:14:58.093Z,12.25
2019-05-28T08:17:59.963Z,12.07
2019-05-28T08:21:01.202Z,12.15
2019-05-28T08:24:02.679Z,12.25
2019-05-28T08:27:03.962Z,11.25
2019-05-28T08:30:06.185Z,11.78
2019-05-28T08:33:07.445Z,11.93
2019-05-28T08:36:08.775Z,11.57
2019-05-28T08:39:10.004Z,23.95
2019-05-28T08:42:11.453Z,29.15
2019-05-28T08:45:13.147Z,27.15
2019-05-28T08:48:15.792Z,12.07
2019-05-28T08:51:16.972Z,20.20
2019-05-28T08:54:18.565Z,24.05
2019-05-28T08:57:20.479Z,27.37
2019-05-28T09:00:37.769Z,22.40
2019-05-28T09:03:39.300Z,24.23
2019-05-28T09:06:40.616Z,15.65
2019-05-28T09:09:42.169Z,21.27
2019-05-28T09:12:44.107Z,14.07
2019-05-28T09:15:45.826Z,11.93
2019-05-28T09:18:47.079Z,17.25
2019-05-28T09:21:48.524Z,13.48
2019-05-28T09:24:49.770Z,11.12
2019-05-28T09:27:51.574Z,10.32
2019-05-28T09:30:52.793Z,24.15
2019-05-28T09:33:54.571Z,13.98
2019-05-28T09:36:55.841Z,15.30
2019-05-28T09:39:57.554Z,11.35
2019-05-28T09:42:58.816Z,15.38
2019-05-28T09:46:00.241Z,22.10
2019-05-28T09:49:01.479Z,11.18
2019-05-28T09:52:03.278Z,9.70
2019-05-28T09:55:05.155Z,13.40
2019-05-28T09:58:06.586Z,9.73
2019-05-28T10:01:07.943Z,11.43
2019-05-28T10:04:09.352Z,8.38
2019-05-28T10:07:10.605Z,10.30
2019-05-28T10:10:12.261Z,8.10
2019-05-28T10:13:13.511Z,7.50
2019-05-28T10:16:15.100Z,6.92
2019-05-28T10:19:16.515Z,7.00
2019-05-28T10:22:17.939Z,7.03
2019-05-28T10:25:19.177Z,7.95
2019-05-28T10:28:20.905Z,7.03
2019-05-28T10:31:22.152Z,6.72
2019-05-28T10:34:23.401Z,6.85
2019-05-28T10:37:24.638Z,6.60
2019-05-28T10:40:26.389Z,6.47
2019-05-28T10:43:29.534Z,6.45
2019-05-28T10:46:30.797Z,6.05
2019-05-28T10:49:32.238Z,6.20
2019-05-28T10:52:33.477Z,6.00
2019-05-28T10:55:34.898Z,6.10
2019-05-28T10:58:36.129Z,5.90
2019-05-28T11:01:37.774Z,5.85
2019-05-28T11:04:39.022Z,6.00
2019-05-28T11:07:42.533Z,5.72
2019-05-28T11:10:43.785Z,5.62
2019-05-28T11:13:52.978Z,6.05
2019-05-28T11:16:49.728Z,5.92
2019-05-28T11:19:51.351Z,5.72
2019-05-28T11:22:53.385Z,5.45
2019-05-28T11:25:54.630Z,5.33
2019-05-28T11:28:55.918Z,5.00
2019-05-28T11:31:57.272Z,4.83
2019-05-28T11:34:58.698Z,4.72
2019-05-28T11:37:59.956Z,4.15
2019-05-28T11:41:01.298Z,4.25
2019-05-28T11:44:03.366Z,4.33
2019-05-28T11:47:05.163Z,4.53
2019-05-28T11:50:09.230Z,4.95
2019-05-28T11:53:10.690Z,5.08
2019-05-28T11:56:12.111Z,4.75
2019-05-28T11:59:13.866Z,4.90
2019-05-28T12:02:15.105Z,4.70
2019-05-28T12:05:17.450Z,4.72
2019-05-28T12:08:18.693Z,4.60
2019-05-28T12:11:21.076Z,4.60
2019-05-28T12:14:22.335Z,4.50
2019-05-28T12:17:40.685Z,4.30
2019-05-28T12:20:28.373Z,4.55
2019-05-28T12:23:29.937Z,4.80
2019-05-28T12:26:31.347Z,4.80
2019-05-28T12:29:33.199Z,4.83
2019-05-28T12:32:34.439Z,5.15
2019-05-28T12:35:35.916Z,5.45
2019-05-28T12:38:37.141Z,5.53
2019-05-28T12:41:38.510Z,5.00
2019-05-28T12:44:42.607Z,6.47
2019-05-28T12:47:43.739Z,5.85
2019-05-28T12:50:45.135Z,5.58
2019-05-28T12:53:50.860Z,5.40
2019-05-28T12:56:49.802Z,4.92
2019-05-28T12:59:51.071Z,5.10
2019-05-28T13:02:52.418Z,4.25
2019-05-28T13:05:54.375Z,4.55
2019-05-28T13:08:55.654Z,4.47
2019-05-28T13:11:57.205Z,4.37
2019-05-28T13:14:58.991Z,4.60
2019-05-28T13:18:01.287Z,4.62
2019-05-28T13:21:02.802Z,4.70
2019-05-28T13:24:04.705Z,4.78
2019-05-28T13:27:18.277Z,4.42
2019-05-28T13:30:14.212Z,4.33
2019-05-28T13:33:16.134Z,4.58
2019-05-28T13:36:17.372Z,4.55
2019-05-28T13:39:18.665Z,3.90
2019-05-28T13:42:19.978Z,3.85
2019-05-28T13:45:21.497Z,3.77
2019-05-28T13:48:24.272Z,3.75
2019-05-28T13:51:27.113Z,4.35
2019-05-28T13:54:31.689Z,4.90
2019-05-28T13:57:33.244Z,4.65
2019-05-28T14:00:34.817Z,4.70
2019-05-28T14:03:36.038Z,5.10
2019-05-28T14:06:43.631Z,5.30
2019-05-28T14:09:40.759Z,4.80
2019-05-28T14:12:44.145Z,5.08
2019-05-28T14:15:45.917Z,4.90
2019-05-28T14:18:47.522Z,5.03
2019-05-28T14:21:48.967Z,5.47
2019-05-28T14:24:50.216Z,5.30
2019-05-28T14:27:52.030Z,5.62
2019-05-28T14:30:59.881Z,4.87
2019-05-28T14:33:56.777Z,5.17
2019-05-28T14:36:57.991Z,5.47
2019-05-28T14:40:00.243Z,5.10
2019-05-28T14:43:01.635Z,5.30
2019-05-28T14:46:03.835Z,5.17
2019-05-28T14:49:07.887Z,5.33
2019-05-28T14:52:08.899Z,4.70
2019-05-28T14:55:10.533Z,4.28
2019-05-28T14:58:13.823Z,4.00
2019-05-28T15:01:15.891Z,4.00
2019-05-28T15:04:17.737Z,3.45
2019-05-28T15:07:19.014Z,3.30
2019-05-28T15:10:31.468Z,2.62
2019-05-28T15:13:33.383Z,2.80
2019-05-28T15:16:36.378Z,2.55
2019-05-28T15:19:37.689Z,2.20
2019-05-28T15:22:39.466Z,2.45
2019-05-28T15:25:41.549Z,2.62
2019-05-28T15:28:44.447Z,2.62
2019-05-28T15:31:46.105Z,2.77
2019-05-28T15:34:48.077Z,2.80
2019-05-28T15:37:51.250Z,3.12
2019-05-28T15:40:53.502Z,3.20
2019-05-28T15:43:55.536Z,4.03
2019-05-28T15:46:57.114Z,3.00
2019-05-28T15:49:59.103Z,3.00
2019-05-28T15:53:09.831Z,3.30
2019-05-28T15:56:11.222Z,2.95
2019-05-28T15:59:15.379Z,2.50
2019-05-28T16:02:17.684Z,2.30
2019-05-28T16:05:19.550Z,2.40
2019-05-28T16:08:23.010Z,2.15
2019-05-28T16:11:25.566Z,2.08
2019-05-28T16:14:28.368Z,2.10
2019-05-28T16:17:34.164Z,2.20
2019-05-28T16:20:48.556Z,1.82
2019-05-28T16:23:53.397Z,2.27
2019-05-28T16:26:55.685Z,2.20
2019-05-28T16:29:57.982Z,2.42
2019-05-28T16:32:59.898Z,1.90
2019-05-28T16:36:01.392Z,2.20
2019-05-28T16:39:06.927Z,2.00
2019-05-28T16:42:08.547Z,2.30
2019-05-28T16:45:11.435Z,2.40
2019-05-28T16:48:12.880Z,2.62
2019-05-28T16:51:14.462Z,2.15
2019-05-28T16:54:19.374Z,2.60
2019-05-28T16:57:19.591Z,2.52
2019-05-28T17:00:21.159Z,2.72
2019-05-28T17:03:22.594Z,2.65
2019-05-28T17:06:24.155Z,2.60
2019-05-28T17:09:25.687Z,2.85
2019-05-28T17:12:27.158Z,2.90
2019-05-28T17:15:28.383Z,2.83
2019-05-28T17:18:32.726Z,2.70
2019-05-28T17:21:34.545Z,3.20
2019-05-28T17:24:35.897Z,2.75
2019-05-28T17:27:38.928Z,2.92
2019-05-28T17:30:41.141Z,3.47
2019-05-28T17:33:44.319Z,2.92
2019-05-28T17:36:47.417Z,2.85
2019-05-28T17:39:50.888Z,3.17
2019-05-28T17:42:52.760Z,3.22
2019-05-28T17:45:55.991Z,3.27
2019-05-28T17:48:57.366Z,3.72
2019-05-28T17:51:59.874Z,3.50
2019-05-28T17:55:24.721Z,3.90
2019-05-28T17:58:30.858Z,3.60
2019-05-28T18:01:31.428Z,8.90
2019-05-28T18:04:34.626Z,5.87
2019-05-28T18:07:37.334Z,6.08
2019-05-28T18:10:39.386Z,5.40
2019-05-28T18:13:43.811Z,5.22
2019-05-28T18:16:47.212Z,4.80
2019-05-28T18:19:50.995Z,4.90
2019-05-28T18:22:54.815Z,4.97
2019-05-28T18:25:56.206Z,4.87
2019-05-28T18:28:57.715Z,4.47
2019-05-28T18:31:59.923Z,4.67
2019-05-28T18:35:01.892Z,4.40
2019-05-28T18:38:03.939Z,5.00
2019-05-28T18:41:20.708Z,4.40
2019-05-28T18:44:12.108Z,4.35
2019-05-28T18:47:14.431Z,4.50
2019-05-28T18:50:16.989Z,4.60
2019-05-28T18:53:18.369Z,4.90
2019-05-28T18:56:21.064Z,5.37
2019-05-28T18:59:22.562Z,5.37
2019-05-28T19:02:25.272Z,4.55
2019-05-28T19:05:26.638Z,4.85
2019-05-28T19:08:28.325Z,5.37
2019-05-28T19:11:37.737Z,5.53
2019-05-28T19:14:33.772Z,5.33
2019-05-28T19:17:35.312Z,5.25
2019-05-28T19:20:37.663Z,5.15
2019-05-28T19:23:38.917Z,5.65
2019-05-28T19:26:40.379Z,5.55
2019-05-28T19:29:42.020Z,6.22
2019-05-28T19:32:43.592Z,6.47
2019-05-28T19:35:46.185Z,5.70
2019-05-28T19:38:49.021Z,6.40
2019-05-28T19:41:54.839Z,6.35
2019-05-28T19:44:57.632Z,6.62
2019-05-28T19:48:01.435Z,7.10
2019-05-28T19:51:02.975Z,6.95
2019-05-28T19:54:05.032Z,7.42
2019-05-28T19:57:07.417Z,7.17
2019-05-28T20:00:11.294Z,7.30
2019-05-28T20:03:13.324Z,7.15
2019-05-28T20:06:14.890Z,7.05
2019-05-28T20:09:18.589Z,7.33
2019-05-28T20:12:19.991Z,8.05
2019-05-28T20:15:24.512Z,7.95
2019-05-28T20:18:27.309Z,8.38
2019-05-28T20:21:31.496Z,7.97
2019-05-28T20:24:32.838Z,8.30
2019-05-28T20:27:34.437Z,8.50
2019-05-28T20:30:35.814Z,10.18
2019-05-28T20:33:37.451Z,7.92
2019-05-28T20:36:39.033Z,9.18
2019-05-28T20:39:41.570Z,8.33
2019-05-28T20:42:43.207Z,9.30
2019-05-28T20:45:47.712Z,9.28
2019-05-28T20:48:50.455Z,8.58
2019-05-28T20:51:53.180Z,8.95
2019-05-28T20:54:55.155Z,10.18
2019-05-28T20:57:57.916Z,10.25
2019-05-28T21:01:02.002Z,10.10
2019-05-28T21:04:04.693Z,10.35
2019-05-28T21:07:06.176Z,9.13
2019-05-28T21:10:09.210Z,11.50
2019-05-28T21:13:11.829Z,10.93
2019-05-28T21:16:14.955Z,13.25
2019-05-28T21:19:16.563Z,12.58
2019-05-28T21:22:26.899Z,12.95
2019-05-28T21:25:23.137Z,10.68
2019-05-28T21:28:26.066Z,12.98
2019-05-28T21:31:28.805Z,12.73
2019-05-28T21:34:30.732Z,13.10
2019-05-28T21:37:33.186Z,13.32
2019-05-28T21:40:36.480Z,11.75
2019-05-28T21:43:39.172Z,11.28
2019-05-28T21:46:40.372Z,12.00
2019-05-28T21:49:42.591Z,11.93
2019-05-28T21:52:44.126Z,12.73
2019-05-28T21:55:45.481Z,11.57
2019-05-28T21:58:48.393Z,12.10
2019-05-28T22:01:49.830Z,11.95
2019-05-28T22:04:53.814Z,11.78
2019-05-28T22:07:55.529Z,12.45
2019-05-28T22:10:57.684Z,12.73
2019-05-28T22:14:00.132Z,11.73
2019-05-28T22:17:03.541Z,13.60
2019-05-28T22:20:06.353Z,12.15
2019-05-28T22:23:08.807Z,12.63
2019-05-28T22:26:10.828Z,13.20
2019-05-28T22:29:12.898Z,13.08
2019-05-28T22:32:14.176Z,13.18
2019-05-28T22:35:17.733Z,12.53
2019-05-28T22:38:18.981Z,12.90
2019-05-28T22:41:20.348Z,12.78
2019-05-28T22:44:21.611Z,11.65
2019-05-28T22:47:23.458Z,11.83
2019-05-28T22:50:25.294Z,12.07
2019-05-28T22:53:26.788Z,11.10
2019-05-28T22:56:28.140Z,11.57
2019-05-28T22:59:29.418Z,11.73
2019-05-28T23:02:30.674Z,11.70
2019-05-28T23:05:33.197Z,12.30
2019-05-28T23:08:35.066Z,11.88
2019-05-28T23:11:36.342Z,12.33
2019-05-28T23:14:37.596Z,11.93
2019-05-28T23:17:39.777Z,12.73
2019-05-28T23:20:41.751Z,12.50
2019-05-28T23:23:43.169Z,12.78
2019-05-28T23:26:48.298Z,11.48
2019-05-28T23:29:50.388Z,11.75
2019-05-28T23:32:51.644Z,11.33
2019-05-28T23:35:53.170Z,13.50
2019-05-28T23:38:54.431Z,12.93
2019-05-28T23:41:55.864Z,11.50
2019-05-28T23:44:57.235Z,12.58
2019-05-28T23:47:58.981Z,13.62
2019-05-28T23:51:00.364Z,12.05
2019-05-28T23:54:01.904Z,13.70
2019-05-28T23:57:03.414Z,12.60
